createdAt,value
2018-03-20T05:02:51.933Z,2.28
2018-03-20T05:05:18.722Z,2.72
2018-03-20T05:07:46.216Z,2.75
2018-03-20T05:10:13.016Z,3.62
2018-03-20T05:12:40.112Z,1.92
2018-03-20T05:15:06.891Z,2.03
2018-03-20T05:17:33.723Z,2.03
2018-03-20T05:20:20.445Z,1.42
2018-03-20T05:22:50.851Z,1.62
2018-03-20T05:25:17.745Z,1.62
2018-03-20T05:27:45.228Z,1.40
2018-03-20T05:30:12.027Z,1.30
2018-03-20T05:32:38.830Z,2.00
2018-03-20T05:35:05.661Z,2.58
2018-03-20T05:37:32.437Z,2.10
2018-03-20T05:39:59.228Z,2.70
2018-03-20T05:42:25.998Z,1.00
2018-03-20T05:44:52.779Z,1.45
2018-03-20T05:47:25.475Z,0.90
2018-03-20T05:49:57.955Z,2.03
2018-03-20T05:52:24.749Z,1.15
2018-03-20T05:54:51.541Z,1.12
2018-03-20T05:57:18.744Z,1.33
2018-03-20T05:59:45.547Z,1.15
2018-03-20T06:02:12.333Z,1.83
2018-03-20T06:04:39.107Z,1.57
2018-03-20T06:07:06.519Z,1.57
2018-03-20T06:09:33.275Z,2.37
2018-03-20T06:12:04.056Z,1.70
2018-03-20T06:14:31.294Z,1.90
2018-03-20T06:16:58.094Z,1.93
2018-03-20T06:19:24.883Z,1.80
2018-03-20T06:21:51.662Z,1.63
2018-03-20T06:24:18.475Z,1.43
2018-03-20T06:26:45.227Z,1.47
2018-03-20T06:29:12.009Z,1.10
2018-03-20T06:31:38.799Z,2.07
2018-03-20T06:34:05.560Z,2.30
2018-03-20T06:36:32.425Z,1.40
2018-03-20T06:38:59.200Z,1.93
2018-03-20T06:41:25.972Z,2.47
2018-03-20T06:43:53.432Z,1.67
2018-03-20T06:46:20.329Z,1.47
2018-03-20T06:48:47.430Z,1.33
2018-03-20T06:51:14.202Z,1.30
2018-03-20T06:53:40.962Z,1.30
2018-03-20T06:56:07.969Z,1.70
2018-03-20T06:58:34.751Z,1.10
2018-03-20T07:01:01.556Z,2.80
2018-03-20T07:03:28.333Z,1.33
2018-03-20T07:05:55.161Z,1.30
2018-03-20T07:08:21.919Z,2.10
2018-03-20T07:10:48.688Z,3.30
2018-03-20T07:13:15.473Z,1.67
2018-03-20T07:15:42.225Z,2.67
2018-03-20T07:18:09.039Z,1.33
2018-03-20T07:20:35.801Z,1.10
2018-03-20T07:23:02.569Z,1.33
2018-03-20T07:25:29.373Z,1.57
2018-03-20T07:27:56.182Z,1.80
2018-03-20T07:30:22.943Z,3.33
2018-03-20T07:32:49.717Z,1.23
2018-03-20T07:35:16.480Z,1.00
2018-03-20T07:37:43.252Z,1.27
2018-03-20T07:40:10.018Z,1.43
2018-03-20T07:42:36.771Z,1.60
2018-03-20T07:45:03.559Z,1.93
2018-03-20T07:47:30.307Z,2.20
2018-03-20T07:49:57.104Z,1.67
2018-03-20T07:52:23.861Z,1.40
2018-03-20T07:54:50.662Z,0.90
2018-03-20T07:57:17.457Z,1.97
2018-03-20T07:59:44.306Z,1.77
2018-03-20T08:02:11.115Z,1.87
2018-03-20T08:04:37.893Z,1.20
2018-03-20T08:07:05.091Z,2.40
2018-03-20T08:09:31.953Z,1.97
2018-03-20T08:11:59.386Z,1.73
2018-03-20T08:14:26.189Z,1.30
2018-03-20T08:16:53.052Z,1.20
2018-03-20T08:19:19.851Z,1.47
2018-03-20T08:21:46.610Z,1.97
2018-03-20T08:24:13.414Z,1.80
2018-03-20T08:26:40.195Z,1.00
2018-03-20T08:29:06.955Z,1.50
2018-03-20T08:31:33.737Z,2.13
2018-03-20T08:34:00.494Z,1.20
2018-03-20T08:36:27.853Z,1.47
2018-03-20T08:38:54.678Z,1.40
2018-03-20T08:41:21.446Z,2.00
2018-03-20T08:43:48.204Z,1.00
2018-03-20T08:46:14.950Z,1.30
2018-03-20T08:48:41.687Z,2.40
2018-03-20T08:51:08.492Z,2.03
2018-03-20T08:53:35.253Z,1.47
2018-03-20T08:56:02.013Z,1.70
2018-03-20T08:58:28.775Z,1.30
2018-03-20T09:00:55.582Z,2.90
2018-03-20T09:03:22.391Z,1.53
2018-03-20T09:05:49.135Z,1.67
2018-03-20T09:08:15.896Z,2.27
2018-03-20T09:10:42.630Z,2.13
2018-03-20T09:13:09.394Z,1.23
2018-03-20T09:15:36.921Z,1.40
2018-03-20T09:18:03.705Z,1.30
2018-03-20T09:20:30.457Z,1.10
2018-03-20T09:22:57.229Z,1.53
2018-03-20T09:25:24.093Z,1.87
2018-03-20T09:27:50.875Z,1.50
2018-03-20T09:30:17.608Z,1.77
2018-03-20T09:32:44.372Z,1.57
2018-03-20T09:35:11.134Z,1.13
2018-03-20T09:37:38.133Z,1.60
2018-03-20T09:40:04.958Z,1.30
2018-03-20T09:42:31.762Z,1.40
2018-03-20T09:44:58.534Z,1.70
2018-03-20T09:47:25.283Z,1.93
2018-03-20T09:49:52.038Z,2.00
2018-03-20T09:52:18.817Z,1.90
2018-03-20T09:54:45.579Z,1.10
2018-03-20T09:57:12.327Z,2.13
2018-03-20T09:59:39.073Z,2.70
2018-03-20T10:02:05.827Z,1.57
2018-03-20T10:04:32.604Z,1.83
2018-03-20T10:06:59.367Z,1.87
2018-03-20T10:09:26.449Z,1.17
2018-03-20T10:11:53.407Z,1.37
2018-03-20T10:14:20.170Z,0.90
2018-03-20T10:16:46.974Z,2.57
2018-03-20T10:19:14.358Z,1.10
2018-03-20T10:21:41.128Z,1.93
2018-03-20T10:24:08.331Z,2.37
2018-03-20T10:26:35.204Z,1.83
2018-03-20T10:29:02.009Z,1.60
2018-03-20T10:31:28.759Z,1.50
2018-03-20T10:33:55.548Z,1.50
2018-03-20T10:36:22.302Z,1.63
2018-03-20T10:38:49.286Z,1.00
2018-03-20T10:41:16.105Z,2.10
2018-03-20T10:43:42.876Z,1.20
2018-03-20T10:46:09.637Z,1.50
2018-03-20T10:48:36.381Z,1.30
2018-03-20T10:51:03.145Z,1.50
2018-03-20T10:53:29.954Z,1.00
2018-03-20T10:55:56.716Z,1.47
2018-03-20T10:58:24.087Z,1.33
2018-03-20T11:00:50.886Z,1.50
2018-03-20T11:03:17.630Z,2.43
2018-03-20T11:05:44.461Z,1.60
2018-03-20T11:08:11.700Z,1.57
2018-03-20T11:10:38.450Z,1.80
2018-03-20T11:13:05.849Z,1.73
2018-03-20T11:15:32.629Z,3.17
2018-03-20T11:17:59.424Z,0.90
2018-03-20T11:20:26.167Z,1.40
2018-03-20T11:22:52.933Z,1.47
2018-03-20T11:25:19.878Z,1.77
2018-03-20T11:27:46.640Z,2.13
2018-03-20T11:30:13.425Z,1.53
2018-03-20T11:32:41.188Z,2.20
2018-03-20T11:35:08.004Z,1.40
2018-03-20T11:37:34.963Z,1.17
2018-03-20T11:40:01.703Z,1.43
2018-03-20T11:42:28.505Z,2.03
2018-03-20T11:44:55.774Z,1.30
2018-03-20T11:47:22.519Z,1.90
2018-03-20T11:49:49.258Z,1.00
2018-03-20T11:52:16.048Z,2.20
2018-03-20T11:54:42.850Z,2.10
2018-03-20T11:57:09.626Z,1.70
2018-03-20T11:59:36.447Z,1.20
2018-03-20T12:02:03.207Z,1.30
2018-03-20T12:04:29.961Z,1.30
2018-03-20T12:06:56.753Z,1.30
2018-03-20T12:09:28.272Z,1.00
2018-03-20T12:11:55.055Z,1.30
2018-03-20T12:14:21.820Z,0.90
2018-03-20T12:16:48.630Z,1.47
2018-03-20T12:19:15.414Z,2.00
2018-03-20T12:21:42.187Z,1.33
2018-03-20T12:24:08.991Z,1.43
2018-03-20T12:26:35.735Z,1.13
2018-03-20T12:29:02.502Z,1.17
2018-03-20T12:31:29.296Z,0.80
2018-03-20T12:33:56.060Z,0.93
2018-03-20T12:36:22.815Z,1.40
2018-03-20T12:38:49.607Z,0.90
2018-03-20T12:41:16.376Z,1.20
2018-03-20T12:43:43.171Z,1.13
2018-03-20T12:46:10.042Z,2.83
2018-03-20T12:48:36.809Z,0.93
2018-03-20T12:51:03.890Z,1.20
2018-03-20T12:53:30.655Z,1.23
2018-03-20T12:55:57.456Z,1.23
2018-03-20T12:58:24.258Z,1.47
2018-03-20T13:00:50.996Z,1.77
2018-03-20T13:03:18.365Z,1.60
2018-03-20T13:05:45.122Z,1.50
2018-03-20T13:08:11.925Z,1.40
2018-03-20T13:10:38.701Z,1.40
2018-03-20T13:13:05.442Z,1.50
2018-03-20T13:15:32.249Z,1.13
2018-03-20T13:17:59.003Z,1.90
2018-03-20T13:20:25.802Z,1.50
2018-03-20T13:22:52.555Z,1.33
2018-03-20T13:25:19.314Z,1.00
2018-03-20T13:27:46.833Z,1.00
2018-03-20T13:30:13.594Z,1.33
2018-03-20T13:32:40.412Z,1.10
2018-03-20T13:35:07.185Z,0.80
2018-03-20T13:37:33.987Z,1.30
2018-03-20T13:40:00.741Z,1.37
2018-03-20T13:42:27.532Z,1.33
2018-03-20T13:44:54.810Z,1.63
2018-03-20T13:47:21.571Z,1.97
2018-03-20T13:49:48.353Z,1.50
2018-03-20T13:52:15.155Z,1.80
2018-03-20T13:54:41.916Z,1.00
2018-03-20T13:57:08.738Z,1.57
2018-03-20T13:59:35.562Z,2.10
2018-03-20T14:02:02.350Z,2.07
2018-03-20T14:04:29.135Z,1.53
2018-03-20T14:06:56.766Z,1.50
2018-03-20T14:09:23.509Z,1.00
2018-03-20T14:11:50.404Z,1.77
2018-03-20T14:14:17.176Z,1.30
2018-03-20T14:16:44.576Z,1.33
2018-03-20T14:19:11.310Z,1.63
2018-03-20T14:21:38.074Z,1.97
2018-03-20T14:24:04.836Z,1.50
2018-03-20T14:26:31.606Z,1.10
2018-03-20T14:28:58.380Z,1.50
2018-03-20T14:31:25.133Z,1.10
2018-03-20T14:33:51.878Z,1.40
2018-03-20T14:36:18.658Z,1.37
2018-03-20T14:38:45.400Z,1.47
2018-03-20T14:41:12.163Z,1.40
2018-03-20T14:43:39.530Z,0.73
2018-03-20T14:46:06.275Z,1.30
2018-03-20T14:48:33.059Z,1.70
2018-03-20T14:50:59.852Z,1.40
2018-03-20T14:53:26.589Z,1.13
2018-03-20T14:55:53.401Z,1.27
2018-03-20T14:58:20.143Z,1.10
2018-03-20T15:00:46.993Z,1.03
2018-03-20T15:03:13.753Z,1.07
2018-03-20T15:05:40.584Z,1.37
2018-03-20T15:08:07.339Z,1.57
2018-03-20T15:10:34.104Z,1.30
2018-03-20T15:13:00.919Z,1.50
2018-03-20T15:15:27.676Z,1.83
2018-03-20T15:17:54.438Z,2.40
2018-03-20T15:20:21.224Z,2.03
2018-03-20T15:22:48.310Z,2.50
2018-03-20T15:25:15.109Z,2.30
2018-03-20T15:27:41.917Z,1.90
2018-03-20T15:30:08.736Z,1.70
2018-03-20T15:32:35.534Z,1.20
2018-03-20T15:35:02.303Z,1.70
2018-03-20T15:37:29.167Z,1.30
2018-03-20T15:39:55.951Z,0.80
2018-03-20T15:42:22.696Z,1.00
2018-03-20T15:44:49.434Z,1.40
2018-03-20T15:47:16.180Z,1.80
2018-03-20T15:49:42.969Z,0.90
2018-03-20T15:52:09.737Z,1.23
2018-03-20T15:54:36.829Z,1.20
2018-03-20T15:57:03.631Z,0.97
2018-03-20T15:59:30.809Z,1.10
2018-03-20T16:01:58.247Z,1.17
2018-03-20T16:04:25.012Z,1.40
2018-03-20T16:06:51.965Z,1.20
2018-03-20T16:09:18.773Z,1.30
2018-03-20T16:11:45.526Z,0.83
2018-03-20T16:14:12.307Z,2.50
2018-03-20T16:16:39.058Z,1.63
2018-03-20T16:19:05.846Z,1.43
2018-03-20T16:21:32.619Z,1.47
2018-03-20T16:23:59.379Z,1.20
2018-03-20T16:26:26.194Z,1.87
2018-03-20T16:28:53.300Z,2.13
2018-03-20T16:31:20.821Z,1.33
2018-03-20T16:33:47.595Z,1.73
2018-03-20T16:36:14.399Z,2.37
2018-03-20T16:38:41.210Z,1.93
2018-03-20T16:41:07.992Z,2.03
2018-03-20T16:43:34.755Z,2.07
2018-03-20T16:46:01.737Z,2.20
2018-03-20T16:48:28.498Z,3.20
2018-03-20T16:50:55.317Z,2.20
2018-03-20T16:53:22.101Z,3.60
2018-03-20T16:55:48.870Z,2.90
2018-03-20T16:58:15.690Z,4.20
2018-03-20T17:00:42.435Z,5.37
2018-03-20T17:03:09.275Z,3.00
2018-03-20T17:05:36.072Z,2.83
2018-03-20T17:08:02.807Z,2.43
2018-03-20T17:10:29.605Z,3.60
2018-03-20T17:12:56.370Z,2.93
2018-03-20T17:15:23.185Z,2.13
2018-03-20T17:17:49.961Z,3.27
2018-03-20T17:20:16.754Z,2.30
2018-03-20T17:22:43.594Z,3.80
2018-03-20T17:25:10.339Z,4.03
2018-03-20T17:27:37.157Z,4.63
2018-03-20T17:30:03.911Z,4.40
2018-03-20T17:32:30.655Z,2.70
2018-03-20T17:34:57.421Z,3.10
2018-03-20T17:37:24.170Z,1.83
2018-03-20T17:39:51.014Z,3.77
2018-03-20T17:42:17.786Z,13.10
2018-03-20T17:44:44.735Z,2.70
2018-03-20T17:47:11.529Z,1.77
2018-03-20T17:49:38.511Z,3.30
2018-03-20T17:52:05.304Z,1.87
2018-03-20T17:54:32.180Z,1.70
2018-03-20T17:56:58.990Z,1.60
2018-03-20T17:59:25.757Z,2.33
2018-03-20T18:01:52.560Z,1.93
2018-03-20T18:04:19.472Z,2.93
2018-03-20T18:06:46.211Z,5.13
2018-03-20T18:09:13.001Z,1.80
2018-03-20T18:11:39.792Z,1.60
2018-03-20T18:14:06.585Z,1.70
2018-03-20T18:16:33.408Z,1.23
2018-03-20T18:19:00.193Z,2.60
2018-03-20T18:21:26.934Z,2.37
2018-03-20T18:23:54.724Z,2.75
2018-03-20T18:26:21.502Z,1.90
2018-03-20T18:28:48.328Z,2.53
2018-03-20T18:31:15.176Z,3.03
2018-03-20T18:33:41.956Z,3.30
2018-03-20T18:36:08.738Z,2.78
2018-03-20T18:38:35.519Z,2.83
2018-03-20T18:41:02.338Z,3.08
2018-03-20T18:43:29.853Z,2.85
2018-03-20T18:45:56.939Z,3.05
2018-03-20T18:48:23.722Z,3.53
2018-03-20T18:50:50.539Z,3.42
2018-03-20T18:53:17.466Z,6.12
2018-03-20T18:55:44.257Z,3.47
2018-03-20T18:58:11.060Z,2.95
2018-03-20T19:00:37.846Z,5.37
2018-03-20T19:03:04.614Z,3.72
2018-03-20T19:05:31.519Z,3.87
2018-03-20T19:07:59.027Z,3.90
2018-03-20T19:10:26.544Z,3.28
2018-03-20T19:12:53.418Z,4.47
2018-03-20T19:15:20.210Z,5.47
2018-03-20T19:17:47.025Z,4.55
2018-03-20T19:20:13.865Z,4.00
2018-03-20T19:22:40.694Z,3.45
2018-03-20T19:25:08.238Z,2.67
2018-03-20T19:27:35.031Z,4.12
2018-03-20T19:30:02.561Z,3.25
2018-03-20T19:32:29.326Z,4.80
2018-03-20T19:34:56.116Z,4.20
2018-03-20T19:37:22.957Z,7.53
2018-03-20T19:39:49.783Z,6.50
2018-03-20T19:42:16.682Z,6.55
2018-03-20T19:44:43.590Z,3.20
2018-03-20T19:47:10.365Z,5.47
2018-03-20T19:49:37.543Z,3.10
2018-03-20T19:52:04.321Z,3.47
2018-03-20T19:54:31.119Z,3.67
2018-03-20T19:56:57.891Z,3.87
2018-03-20T19:59:24.676Z,3.58
2018-03-20T20:01:51.436Z,3.47
2018-03-20T20:04:18.246Z,4.53
2018-03-20T20:06:45.425Z,4.30
2018-03-20T20:09:12.437Z,2.90
2018-03-20T20:11:39.198Z,4.03
2018-03-20T20:14:06.234Z,4.95
2018-03-20T20:16:33.028Z,3.78
2018-03-20T20:19:00.337Z,4.10
2018-03-20T20:21:27.785Z,3.50
2018-03-20T20:23:54.568Z,4.78
2018-03-20T20:26:21.673Z,4.55
2018-03-20T20:28:48.454Z,4.82
2018-03-20T20:31:15.267Z,5.90
2018-03-20T20:33:42.283Z,4.22
2018-03-20T20:36:09.409Z,5.32
2018-03-20T20:38:36.203Z,5.10
2018-03-20T20:41:02.965Z,4.60
2018-03-20T20:43:29.859Z,5.03
2018-03-20T20:45:57.049Z,6.07
2018-03-20T20:48:23.892Z,5.68
2018-03-20T20:50:51.109Z,5.80
2018-03-20T20:53:17.914Z,5.50
2018-03-20T20:55:44.909Z,6.10
2018-03-20T20:58:11.755Z,7.80
2018-03-20T21:00:38.497Z,4.45
2018-03-20T21:03:05.255Z,4.25
2018-03-20T21:05:33.092Z,5.25
2018-03-20T21:07:59.927Z,4.70
2018-03-20T21:10:26.670Z,5.20
2018-03-20T21:12:53.489Z,4.30
2018-03-20T21:15:21.327Z,3.87
2018-03-20T21:17:48.134Z,4.78
2018-03-20T21:20:14.931Z,3.87
2018-03-20T21:22:41.699Z,6.28
2018-03-20T21:25:08.473Z,4.75
2018-03-20T21:27:35.683Z,4.05
2018-03-20T21:30:02.439Z,4.70
2018-03-20T21:32:29.247Z,4.15
2018-03-20T21:34:56.034Z,3.90
2018-03-20T21:37:22.826Z,4.12
2018-03-20T21:39:49.596Z,3.55
2018-03-20T21:42:16.349Z,3.28
2018-03-20T21:44:43.779Z,5.62
2018-03-20T21:47:10.556Z,3.62
2018-03-20T21:49:37.331Z,3.40
2018-03-20T21:52:04.076Z,4.65
2018-03-20T21:54:30.845Z,4.55
2018-03-20T21:56:57.639Z,4.03
2018-03-20T21:59:24.404Z,4.03
2018-03-20T22:01:51.902Z,4.05
2018-03-20T22:04:18.691Z,3.78
2018-03-20T22:06:45.476Z,4.12
2018-03-20T22:09:12.282Z,3.67
2018-03-20T22:11:39.051Z,4.35
2018-03-20T22:14:06.000Z,3.87
2018-03-20T22:16:32.773Z,4.30
2018-03-20T22:18:59.551Z,5.28
2018-03-20T22:21:26.364Z,4.80
2018-03-20T22:23:53.133Z,4.28
2018-03-20T22:26:20.655Z,4.00
2018-03-20T22:28:47.713Z,4.07
2018-03-20T22:31:14.481Z,3.50
2018-03-20T22:33:41.281Z,3.70
2018-03-20T22:36:08.050Z,3.85
2018-03-20T22:38:34.839Z,3.80
2018-03-20T22:41:01.609Z,3.58
2018-03-20T22:43:28.860Z,4.87
2018-03-20T22:45:55.669Z,5.68
2018-03-20T22:48:22.449Z,4.12
2018-03-20T22:50:49.265Z,6.05
2018-03-20T22:53:16.529Z,3.67
2018-03-20T22:55:43.464Z,4.43
2018-03-20T22:58:10.286Z,4.62
2018-03-20T23:00:37.072Z,4.43
2018-03-20T23:03:03.850Z,5.07
2018-03-20T23:05:30.631Z,4.07
2018-03-20T23:07:57.398Z,3.75
2018-03-20T23:10:24.238Z,4.20
2018-03-20T23:12:50.986Z,4.07
2018-03-20T23:15:17.743Z,2.95
2018-03-20T23:17:44.863Z,4.60
2018-03-20T23:20:11.612Z,3.75
2018-03-20T23:22:38.398Z,4.82
2018-03-20T23:25:05.190Z,3.78
2018-03-20T23:27:31.959Z,3.10
